sensor_id;sensor_type;location;lat;lon;timestamp;temperature;humidity
13231;DHT22;6681;53.254;10.398;2022-09-09T00:00:18;14.70;99.90
13231;DHT22;6681;53.254;10.398;2022-09-09T00:02:55;14.70;99.90
13231;DHT22;6681;53.254;10.398;2022-09-09T00:05:39;14.70;99.90
13231;DHT22;6681;53.254;10.398;2022-09-09T00:08:15;14.70;99.90
13231;DHT22;6681;53.254;10.398;2022-09-09T00:10:43;14.80;99.90
13231;DHT22;6681;53.254;10.398;2022-09-09T00:16:19;14.60;99.90
13231;DHT22;6681;53.254;10.398;2022-09-09T00:19:04;14.70;99.90
13231;DHT22;6681;53.254;10.398;2022-09-09T00:21:32;14.70;99.90
13231;DHT22;6681;53.254;10.398;2022-09-09T00:23:58;14.70;99.90
13231;DHT22;6681;53.254;10.398;2022-09-09T00:26:44;14.70;99.90
13231;DHT22;6681;53.254;10.398;2022-09-09T00:31:39;14.60;99.90
13231;DHT22;6681;53.254;10.398;2022-09-09T00:34:13;14.60;99.90
13231;DHT22;6681;53.254;10.398;2022-09-09T00:36:41;14.60;99.90
13231;DHT22;6681;53.254;10.398;2022-09-09T00:39:34;15.90;99.90
13231;DHT22;6681;53.254;10.398;2022-09-09T00:42:06;14.70;99.90
13231;DHT22;6681;53.254;10.398;2022-09-09T00:44:37;14.70;99.90
13231;DHT22;6681;53.254;10.398;2022-09-09T00:50:00;14.70;99.90
13231;DHT22;6681;53.254;10.398;2022-09-09T00:57:29;14.70;99.90
13231;DHT22;6681;53.254;10.398;2022-09-09T01:11:04;14.70;99.90
13231;DHT22;6681;53.254;10.398;2022-09-09T01:13:32;14.70;99.90
13231;DHT22;6681;53.254;10.398;2022-09-09T01:16:00;14.70;99.90
13231;DHT22;6681;53.254;10.398;2022-09-09T01:18:46;14.70;99.90
13231;DHT22;6681;53.254;10.398;2022-09-09T01:21:50;15.70;99.90
13231;DHT22;6681;53.254;10.398;2022-09-09T01:27:01;14.60;99.90
13231;DHT22;6681;53.254;10.398;2022-09-09T01:29:28;14.60;99.90
13231;DHT22;6681;53.254;10.398;2022-09-09T01:31:55;14.60;99.90
13231;DHT22;6681;53.254;10.398;2022-09-09T01:34:23;14.60;99.90
13231;DHT22;6681;53.254;10.398;2022-09-09T01:36:59;14.50;99.90
13231;DHT22;6681;53.254;10.398;2022-09-09T01:39:26;14.70;99.90
13231;DHT22;6681;53.254;10.398;2022-09-09T01:41:53;14.50;99.90
13231;DHT22;6681;53.254;10.398;2022-09-09T01:44:19;14.40;99.90
13231;DHT22;6681;53.254;10.398;2022-09-09T01:46:45;15.50;99.90
13231;DHT22;6681;53.254;10.398;2022-09-09T01:49:11;14.30;99.90
13231;DHT22;6681;53.254;10.398;2022-09-09T01:51:38;14.40;99.90
13231;DHT22;6681;53.254;10.398;2022-09-09T01:54:06;14.40;99.90
13231;DHT22;6681;53.254;10.398;2022-09-09T02:02:26;14.30;99.90
13231;DHT22;6681;53.254;10.398;2022-09-09T02:07:50;14.30;99.90
13231;DHT22;6681;53.254;10.398;2022-09-09T02:10:28;14.30;99.90
13231;DHT22;6681;53.254;10.398;2022-09-09T02:13:04;14.40;99.90
13231;DHT22;6681;53.254;10.398;2022-09-09T02:18:49;14.40;99.90
13231;DHT22;6681;53.254;10.398;2022-09-09T02:21:17;14.30;99.90
13231;DHT22;6681;53.254;10.398;2022-09-09T02:23:43;14.30;99.90
13231;DHT22;6681;53.254;10.398;2022-09-09T02:26:12;14.40;99.90
13231;DHT22;6681;53.254;10.398;2022-09-09T02:28:46;14.60;99.90
13231;DHT22;6681;53.254;10.398;2022-09-09T02:31:14;14.30;99.90
13231;DHT22;6681;53.254;10.398;2022-09-09T02:33:45;15.80;99.90
13231;DHT22;6681;53.254;10.398;2022-09-09T02:36:15;14.30;99.90
13231;DHT22;6681;53.254;10.398;2022-09-09T02:38:45;14.20;99.90
13231;DHT22;6681;53.254;10.398;2022-09-09T02:41:23;14.40;99.90
13231;DHT22;6681;53.254;10.398;2022-09-09T02:43:50;14.20;99.90
13231;DHT22;6681;53.254;10.398;2022-09-09T02:49:05;14.10;99.90
13231;DHT22;6681;53.254;10.398;2022-09-09T02:52:04;14.10;99.90
13231;DHT22;6681;53.254;10.398;2022-09-09T02:54:35;14.10;99.90
13231;DHT22;6681;53.254;10.398;2022-09-09T02:57:08;14.10;99.90
13231;DHT22;6681;53.254;10.398;2022-09-09T02:59:35;14.10;99.90
13231;DHT22;6681;53.254;10.398;2022-09-09T03:02:01;15.10;99.90
13231;DHT22;6681;53.254;10.398;2022-09-09T03:04:28;14.10;99.90
13231;DHT22;6681;53.254;10.398;2022-09-09T03:06:53;14.20;99.90
13231;DHT22;6681;53.254;10.398;2022-09-09T03:09:19;14.10;99.90
13231;DHT22;6681;53.254;10.398;2022-09-09T03:11:44;14.00;99.90
13231;DHT22;6681;53.254;10.398;2022-09-09T03:14:10;14.30;99.90
13231;DHT22;6681;53.254;10.398;2022-09-09T03:16:36;14.00;99.90
13231;DHT22;6681;53.254;10.398;2022-09-09T03:19:02;14.00;99.90
13231;DHT22;6681;53.254;10.398;2022-09-09T03:21:28;11.30;99.90
13231;DHT22;6681;53.254;10.398;2022-09-09T03:23:54;15.20;99.90
13231;DHT22;6681;53.254;10.398;2022-09-09T03:26:19;12.70;99.90
13231;DHT22;6681;53.254;10.398;2022-09-09T03:28:45;14.30;99.90
13231;DHT22;6681;53.254;10.398;2022-09-09T03:31:11;13.90;99.90
13231;DHT22;6681;53.254;10.398;2022-09-09T03:33:37;13.90;99.90
13231;DHT22;6681;53.254;10.398;2022-09-09T03:36:04;14.00;99.90
13231;DHT22;6681;53.254;10.398;2022-09-09T03:38:30;14.00;99.90
13231;DHT22;6681;53.254;10.398;2022-09-09T03:40:56;14.00;99.90
13231;DHT22;6681;53.254;10.398;2022-09-09T03:43:26;14.00;99.90
13231;DHT22;6681;53.254;10.398;2022-09-09T03:45:52;14.10;99.90
13231;DHT22;6681;53.254;10.398;2022-09-09T03:48:18;14.00;99.90
13231;DHT22;6681;53.254;10.398;2022-09-09T03:50:49;13.90;99.90
13231;DHT22;6681;53.254;10.398;2022-09-09T03:53:16;13.90;99.90
13231;DHT22;6681;53.254;10.398;2022-09-09T03:55:54;13.80;99.90
13231;DHT22;6681;53.254;10.398;2022-09-09T03:58:21;13.80;99.90
13231;DHT22;6681;53.254;10.398;2022-09-09T04:01:01;13.80;99.90
13231;DHT22;6681;53.254;10.398;2022-09-09T04:03:28;13.80;99.90
13231;DHT22;6681;53.254;10.398;2022-09-09T04:05:55;13.80;99.90
13231;DHT22;6681;53.254;10.398;2022-09-09T04:08:21;14.50;99.90
13231;DHT22;6681;53.254;10.398;2022-09-09T04:10:48;13.80;99.90
13231;DHT22;6681;53.254;10.398;2022-09-09T04:13:15;13.80;99.90
13231;DHT22;6681;53.254;10.398;2022-09-09T04:15:43;13.70;99.90
13231;DHT22;6681;53.254;10.398;2022-09-09T04:18:09;13.80;99.90
13231;DHT22;6681;53.254;10.398;2022-09-09T04:20:35;13.70;99.90
13231;DHT22;6681;53.254;10.398;2022-09-09T04:23:01;14.20;99.90
13231;DHT22;6681;53.254;10.398;2022-09-09T04:25:27;13.80;99.90
13231;DHT22;6681;53.254;10.398;2022-09-09T04:27:56;15.20;99.90
13231;DHT22;6681;53.254;10.398;2022-09-09T04:30:23;13.80;99.90
13231;DHT22;6681;53.254;10.398;2022-09-09T04:32:49;13.80;99.90
13231;DHT22;6681;53.254;10.398;2022-09-09T04:35:15;15.20;99.90
13231;DHT22;6681;53.254;10.398;2022-09-09T04:37:41;13.80;99.90
13231;DHT22;6681;53.254;10.398;2022-09-09T04:40:07;14.40;99.90
13231;DHT22;6681;53.254;10.398;2022-09-09T04:42:38;13.90;99.90
13231;DHT22;6681;53.254;10.398;2022-09-09T04:45:05;13.90;99.90
13231;DHT22;6681;53.254;10.398;2022-09-09T04:47:32;13.90;99.90
13231;DHT22;6681;53.254;10.398;2022-09-09T04:49:58;13.90;99.90
13231;DHT22;6681;53.254;10.398;2022-09-09T04:52:24;13.80;99.90
13231;DHT22;6681;53.254;10.398;2022-09-09T04:54:49;13.80;99.90
13231;DHT22;6681;53.254;10.398;2022-09-09T04:57:15;14.00;99.90
13231;DHT22;6681;53.254;10.398;2022-09-09T04:59:41;13.90;99.90
13231;DHT22;6681;53.254;10.398;2022-09-09T05:02:06;14.00;99.90
13231;DHT22;6681;53.254;10.398;2022-09-09T05:04:32;13.80;99.90
13231;DHT22;6681;53.254;10.398;2022-09-09T05:06:59;14.10;99.90
13231;DHT22;6681;53.254;10.398;2022-09-09T05:09:24;13.90;99.90
13231;DHT22;6681;53.254;10.398;2022-09-09T05:11:50;13.90;99.90
13231;DHT22;6681;53.254;10.398;2022-09-09T05:14:16;15.80;99.90
13231;DHT22;6681;53.254;10.398;2022-09-09T05:16:44;14.00;99.90
13231;DHT22;6681;53.254;10.398;2022-09-09T05:19:11;13.90;99.90
13231;DHT22;6681;53.254;10.398;2022-09-09T05:21:37;14.00;99.90
13231;DHT22;6681;53.254;10.398;2022-09-09T05:24:03;13.90;99.90
13231;DHT22;6681;53.254;10.398;2022-09-09T05:26:28;13.90;99.90
13231;DHT22;6681;53.254;10.398;2022-09-09T05:28:58;13.90;99.90
13231;DHT22;6681;53.254;10.398;2022-09-09T05:31:25;14.00;99.90
13231;DHT22;6681;53.254;10.398;2022-09-09T05:33:53;14.00;99.90
13231;DHT22;6681;53.254;10.398;2022-09-09T05:36:21;14.00;99.90
13231;DHT22;6681;53.254;10.398;2022-09-09T05:38:47;14.00;99.90
13231;DHT22;6681;53.254;10.398;2022-09-09T05:41:13;14.00;99.90
13231;DHT22;6681;53.254;10.398;2022-09-09T05:43:43;15.80;99.90
13231;DHT22;6681;53.254;10.398;2022-09-09T05:46:17;14.00;99.90
13231;DHT22;6681;53.254;10.398;2022-09-09T05:48:45;14.20;99.90
13231;DHT22;6681;53.254;10.398;2022-09-09T05:51:20;14.00;99.90
13231;DHT22;6681;53.254;10.398;2022-09-09T05:53:47;14.00;99.90
13231;DHT22;6681;53.254;10.398;2022-09-09T05:56:14;15.30;99.90
13231;DHT22;6681;53.254;10.398;2022-09-09T05:58:41;14.10;99.90
13231;DHT22;6681;53.254;10.398;2022-09-09T06:01:14;14.20;99.90
13231;DHT22;6681;53.254;10.398;2022-09-09T06:03:41;14.30;99.90
13231;DHT22;6681;53.254;10.398;2022-09-09T06:06:10;14.20;99.90
13231;DHT22;6681;53.254;10.398;2022-09-09T06:08:41;14.20;99.90
13231;DHT22;6681;53.254;10.398;2022-09-09T06:13:36;14.30;99.90
13231;DHT22;6681;53.254;10.398;2022-09-09T06:16:11;14.20;99.90
13231;DHT22;6681;53.254;10.398;2022-09-09T06:18:41;14.30;99.90
13231;DHT22;6681;53.254;10.398;2022-09-09T06:21:11;14.30;99.90
13231;DHT22;6681;53.254;10.398;2022-09-09T06:23:40;14.50;99.90
13231;DHT22;6681;53.254;10.398;2022-09-09T06:26:14;15.70;99.90
13231;DHT22;6681;53.254;10.398;2022-09-09T06:28:41;14.40;99.90
13231;DHT22;6681;53.254;10.398;2022-09-09T06:31:10;14.40;99.90
13231;DHT22;6681;53.254;10.398;2022-09-09T06:33:38;14.40;99.90
13231;DHT22;6681;53.254;10.398;2022-09-09T06:36:11;14.50;99.90
13231;DHT22;6681;53.254;10.398;2022-09-09T06:38:37;14.40;99.90
13231;DHT22;6681;53.254;10.398;2022-09-09T06:41:03;14.40;99.90
13231;DHT22;6681;53.254;10.398;2022-09-09T06:43:31;14.40;99.90
13231;DHT22;6681;53.254;10.398;2022-09-09T06:46:15;14.50;99.90
13231;DHT22;6681;53.254;10.398;2022-09-09T06:48:43;15.60;99.90
13231;DHT22;6681;53.254;10.398;2022-09-09T06:51:17;14.40;99.90
13231;DHT22;6681;53.254;10.398;2022-09-09T06:53:44;14.50;99.90
13231;DHT22;6681;53.254;10.398;2022-09-09T06:58:37;14.60;99.90
13231;DHT22;6681;53.254;10.398;2022-09-09T07:01:06;14.60;99.90
13231;DHT22;6681;53.254;10.398;2022-09-09T07:03:32;14.70;99.90
13231;DHT22;6681;53.254;10.398;2022-09-09T07:05:59;15.10;99.90
13231;DHT22;6681;53.254;10.398;2022-09-09T07:08:25;14.80;99.90
13231;DHT22;6681;53.254;10.398;2022-09-09T07:10:52;15.60;99.90
13231;DHT22;6681;53.254;10.398;2022-09-09T07:13:25;14.80;99.90
13231;DHT22;6681;53.254;10.398;2022-09-09T07:15:51;14.80;99.90
13231;DHT22;6681;53.254;10.398;2022-09-09T07:18:18;14.80;99.90
13231;DHT22;6681;53.254;10.398;2022-09-09T07:20:53;14.90;99.90
13231;DHT22;6681;53.254;10.398;2022-09-09T07:23:19;14.20;99.90
13231;DHT22;6681;53.254;10.398;2022-09-09T07:25:45;15.00;99.90
13231;DHT22;6681;53.254;10.398;2022-09-09T07:28:11;16.00;99.90
13231;DHT22;6681;53.254;10.398;2022-09-09T07:30:36;16.70;99.90
13231;DHT22;6681;53.254;10.398;2022-09-09T07:33:02;15.10;99.90
13231;DHT22;6681;53.254;10.398;2022-09-09T07:35:28;15.10;99.90
13231;DHT22;6681;53.254;10.398;2022-09-09T07:37:54;15.90;99.90
13231;DHT22;6681;53.254;10.398;2022-09-09T07:40:20;15.20;99.90
13231;DHT22;6681;53.254;10.398;2022-09-09T07:42:47;15.60;99.90
13231;DHT22;6681;53.254;10.398;2022-09-09T07:45:13;15.30;99.90
13231;DHT22;6681;53.254;10.398;2022-09-09T07:47:39;15.40;99.90
13231;DHT22;6681;53.254;10.398;2022-09-09T07:50:08;17.20;99.90
13231;DHT22;6681;53.254;10.398;2022-09-09T07:52:34;15.60;99.90
13231;DHT22;6681;53.254;10.398;2022-09-09T07:55:00;16.80;99.90
13231;DHT22;6681;53.254;10.398;2022-09-09T07:57:28;15.70;99.90
13231;DHT22;6681;53.254;10.398;2022-09-09T07:59:55;15.80;99.90
13231;DHT22;6681;53.254;10.398;2022-09-09T08:02:22;16.70;99.90
13231;DHT22;6681;53.254;10.398;2022-09-09T08:04:48;16.40;99.90
13231;DHT22;6681;53.254;10.398;2022-09-09T08:07:14;15.90;99.90
13231;DHT22;6681;53.254;10.398;2022-09-09T08:09:40;16.00;99.90
13231;DHT22;6681;53.254;10.398;2022-09-09T08:12:05;16.10;99.90
13231;DHT22;6681;53.254;10.398;2022-09-09T08:14:32;16.10;99.90
13231;DHT22;6681;53.254;10.398;2022-09-09T08:16:57;16.10;99.90
13231;DHT22;6681;53.254;10.398;2022-09-09T08:19:23;16.10;99.90
13231;DHT22;6681;53.254;10.398;2022-09-09T08:21:49;16.20;99.90
13231;DHT22;6681;53.254;10.398;2022-09-09T08:24:14;16.30;99.90
13231;DHT22;6681;53.254;10.398;2022-09-09T08:26:46;16.30;99.90
13231;DHT22;6681;53.254;10.398;2022-09-09T08:29:13;16.50;99.90
13231;DHT22;6681;53.254;10.398;2022-09-09T08:31:50;16.40;99.90
13231;DHT22;6681;53.254;10.398;2022-09-09T08:34:18;16.50;99.90
13231;DHT22;6681;53.254;10.398;2022-09-09T08:36:47;16.50;99.90
13231;DHT22;6681;53.254;10.398;2022-09-09T08:39:15;16.50;99.90
13231;DHT22;6681;53.254;10.398;2022-09-09T08:52:36;16.80;99.90
13231;DHT22;6681;53.254;10.398;2022-09-09T08:55:28;16.90;99.90
13231;DHT22;6681;53.254;10.398;2022-09-09T08:58:02;16.90;99.90
13231;DHT22;6681;53.254;10.398;2022-09-09T09:11:38;17.30;99.90
13231;DHT22;6681;53.254;10.398;2022-09-09T09:14:24;17.40;99.90
13231;DHT22;6681;53.254;10.398;2022-09-09T09:17:02;17.50;99.90
13231;DHT22;6681;53.254;10.398;2022-09-09T09:19:30;17.60;99.90
13231;DHT22;6681;53.254;10.398;2022-09-09T09:22:32;17.70;99.90
13231;DHT22;6681;53.254;10.398;2022-09-09T09:25:19;17.70;99.90
13231;DHT22;6681;53.254;10.398;2022-09-09T09:30:39;17.80;99.90
13231;DHT22;6681;53.254;10.398;2022-09-09T09:33:27;17.90;99.90
13231;DHT22;6681;53.254;10.398;2022-09-09T09:35:55;17.90;99.90
13231;DHT22;6681;53.254;10.398;2022-09-09T09:38:23;17.90;99.90
13231;DHT22;6681;53.254;10.398;2022-09-09T09:40:58;18.00;99.90
13231;DHT22;6681;53.254;10.398;2022-09-09T09:43:29;18.00;99.90
13231;DHT22;6681;53.254;10.398;2022-09-09T09:45:55;18.00;99.90
13231;DHT22;6681;53.254;10.398;2022-09-09T09:48:23;18.00;99.90
13231;DHT22;6681;53.254;10.398;2022-09-09T09:50:50;18.00;99.90
13231;DHT22;6681;53.254;10.398;2022-09-09T09:53:24;18.10;99.90
13231;DHT22;6681;53.254;10.398;2022-09-09T09:55:59;18.10;99.90
13231;DHT22;6681;53.254;10.398;2022-09-09T09:58:29;18.10;99.90
13231;DHT22;6681;53.254;10.398;2022-09-09T10:00:57;18.20;99.90
13231;DHT22;6681;53.254;10.398;2022-09-09T10:03:32;18.20;99.90
13231;DHT22;6681;53.254;10.398;2022-09-09T10:05:58;18.30;99.90
13231;DHT22;6681;53.254;10.398;2022-09-09T10:08:25;18.30;99.90
13231;DHT22;6681;53.254;10.398;2022-09-09T10:13:41;18.40;99.90
13231;DHT22;6681;53.254;10.398;2022-09-09T10:18:58;18.50;99.90
13231;DHT22;6681;53.254;10.398;2022-09-09T10:24:25;18.50;99.90
13231;DHT22;6681;53.254;10.398;2022-09-09T10:35:10;18.90;99.90
13231;DHT22;6681;53.254;10.398;2022-09-09T10:37:40;19.00;99.90
13231;DHT22;6681;53.254;10.398;2022-09-09T10:42:36;19.20;99.90
13231;DHT22;6681;53.254;10.398;2022-09-09T10:56:09;19.90;99.90
13231;DHT22;6681;53.254;10.398;2022-09-09T10:58:44;20.00;99.90
13231;DHT22;6681;53.254;10.398;2022-09-09T11:04:04;20.00;99.90
13231;DHT22;6681;53.254;10.398;2022-09-09T11:06:37;20.00;99.90
13231;DHT22;6681;53.254;10.398;2022-09-09T11:09:05;20.10;99.90
13231;DHT22;6681;53.254;10.398;2022-09-09T11:11:41;20.00;99.90
13231;DHT22;6681;53.254;10.398;2022-09-09T11:17:04;19.90;99.90
13231;DHT22;6681;53.254;10.398;2022-09-09T11:19:39;19.80;99.90
13231;DHT22;6681;53.254;10.398;2022-09-09T11:22:32;19.70;99.90
13231;DHT22;6681;53.254;10.398;2022-09-09T11:25:14;19.70;99.90
13231;DHT22;6681;53.254;10.398;2022-09-09T11:33:26;19.50;99.90
13231;DHT22;6681;53.254;10.398;2022-09-09T11:38:46;19.40;99.90
13231;DHT22;6681;53.254;10.398;2022-09-09T11:41:14;19.30;99.90
13231;DHT22;6681;53.254;10.398;2022-09-09T11:43:48;19.30;99.90
13231;DHT22;6681;53.254;10.398;2022-09-09T11:46:20;19.20;99.90
13231;DHT22;6681;53.254;10.398;2022-09-09T11:49:02;19.10;99.90
13231;DHT22;6681;53.254;10.398;2022-09-09T11:51:30;19.10;99.90
13231;DHT22;6681;53.254;10.398;2022-09-09T11:54:00;19.00;99.90
13231;DHT22;6681;53.254;10.398;2022-09-09T11:56:42;19.00;99.90
13231;DHT22;6681;53.254;10.398;2022-09-09T11:59:25;19.00;99.90
13231;DHT22;6681;53.254;10.398;2022-09-09T12:02:19;19.00;99.90
13231;DHT22;6681;53.254;10.398;2022-09-09T12:05:06;19.00;99.90
13231;DHT22;6681;53.254;10.398;2022-09-09T12:12:35;18.90;99.90
13231;DHT22;6681;53.254;10.398;2022-09-09T12:17:44;18.90;99.90
13231;DHT22;6681;53.254;10.398;2022-09-09T12:20:15;19.00;99.90
13231;DHT22;6681;53.254;10.398;2022-09-09T12:25:56;19.10;99.90
13231;DHT22;6681;53.254;10.398;2022-09-09T12:28:39;19.20;99.90
13231;DHT22;6681;53.254;10.398;2022-09-09T12:33:45;19.20;99.90
13231;DHT22;6681;53.254;10.398;2022-09-09T12:36:21;19.30;99.90
13231;DHT22;6681;53.254;10.398;2022-09-09T12:38:48;19.30;99.90
13231;DHT22;6681;53.254;10.398;2022-09-09T12:41:26;19.40;99.90
13231;DHT22;6681;53.254;10.398;2022-09-09T12:44:04;19.40;99.90
13231;DHT22;6681;53.254;10.398;2022-09-09T12:46:42;19.40;99.90
13231;DHT22;6681;53.254;10.398;2022-09-09T12:49:38;19.30;99.90
13231;DHT22;6681;53.254;10.398;2022-09-09T12:52:15;19.40;99.90
13231;DHT22;6681;53.254;10.398;2022-09-09T12:54:45;19.50;99.90
13231;DHT22;6681;53.254;10.398;2022-09-09T12:57:16;19.50;99.90
13231;DHT22;6681;53.254;10.398;2022-09-09T12:59:43;19.60;99.90
13231;DHT22;6681;53.254;10.398;2022-09-09T13:02:22;19.90;99.90
13231;DHT22;6681;53.254;10.398;2022-09-09T13:04:48;20.40;99.90
13231;DHT22;6681;53.254;10.398;2022-09-09T13:07:16;20.70;99.90
13231;DHT22;6681;53.254;10.398;2022-09-09T13:09:43;21.00;99.90
13231;DHT22;6681;53.254;10.398;2022-09-09T13:12:26;21.20;99.90
13231;DHT22;6681;53.254;10.398;2022-09-09T13:14:53;21.50;99.90
13231;DHT22;6681;53.254;10.398;2022-09-09T13:17:26;21.80;99.90
13231;DHT22;6681;53.254;10.398;2022-09-09T13:19:54;22.10;99.90
13231;DHT22;6681;53.254;10.398;2022-09-09T13:22:37;21.80;99.90
13231;DHT22;6681;53.254;10.398;2022-09-09T13:27:40;21.10;99.90
13231;DHT22;6681;53.254;10.398;2022-09-09T13:30:39;20.80;99.90
13231;DHT22;6681;53.254;10.398;2022-09-09T13:33:51;20.50;99.90
13231;DHT22;6681;53.254;10.398;2022-09-09T13:35:55;20.30;99.90
13231;DHT22;6681;53.254;10.398;2022-09-09T13:38:21;20.10;99.90
13231;DHT22;6681;53.254;10.398;2022-09-09T13:41:05;19.90;99.90
13231;DHT22;6681;53.254;10.398;2022-09-09T13:43:36;19.80;99.90
13231;DHT22;6681;53.254;10.398;2022-09-09T13:46:06;19.70;99.90
13231;DHT22;6681;53.254;10.398;2022-09-09T13:48:58;19.60;99.90
13231;DHT22;6681;53.254;10.398;2022-09-09T13:51:39;19.50;99.90
13231;DHT22;6681;53.254;10.398;2022-09-09T13:54:06;19.50;99.90
13231;DHT22;6681;53.254;10.398;2022-09-09T13:56:36;19.40;99.90
13231;DHT22;6681;53.254;10.398;2022-09-09T13:59:04;19.40;99.90
13231;DHT22;6681;53.254;10.398;2022-09-09T14:01:30;19.40;99.90
13231;DHT22;6681;53.254;10.398;2022-09-09T14:03:56;19.30;99.90
13231;DHT22;6681;53.254;10.398;2022-09-09T14:06:22;19.20;99.90
13231;DHT22;6681;53.254;10.398;2022-09-09T14:08:51;19.10;99.90
13231;DHT22;6681;53.254;10.398;2022-09-09T14:11:17;19.00;99.90
13231;DHT22;6681;53.254;10.398;2022-09-09T14:13:43;18.90;99.90
13231;DHT22;6681;53.254;10.398;2022-09-09T14:16:09;18.80;99.90
13231;DHT22;6681;53.254;10.398;2022-09-09T14:18:35;18.80;99.90
13231;DHT22;6681;53.254;10.398;2022-09-09T14:21:01;18.70;99.90
13231;DHT22;6681;53.254;10.398;2022-09-09T14:23:28;18.70;99.90
13231;DHT22;6681;53.254;10.398;2022-09-09T14:25:54;18.60;99.90
13231;DHT22;6681;53.254;10.398;2022-09-09T14:28:20;18.60;99.90
13231;DHT22;6681;53.254;10.398;2022-09-09T14:30:46;18.60;99.90
13231;DHT22;6681;53.254;10.398;2022-09-09T14:33:13;18.50;99.90
13231;DHT22;6681;53.254;10.398;2022-09-09T14:35:40;18.50;99.90
13231;DHT22;6681;53.254;10.398;2022-09-09T14:38:07;18.40;99.90
13231;DHT22;6681;53.254;10.398;2022-09-09T14:40:34;18.40;99.90
13231;DHT22;6681;53.254;10.398;2022-09-09T14:43:00;18.40;99.90
13231;DHT22;6681;53.254;10.398;2022-09-09T14:45:26;18.50;99.90
13231;DHT22;6681;53.254;10.398;2022-09-09T14:47:52;18.50;99.90
13231;DHT22;6681;53.254;10.398;2022-09-09T14:50:18;18.30;99.90
13231;DHT22;6681;53.254;10.398;2022-09-09T14:52:44;18.30;99.90
13231;DHT22;6681;53.254;10.398;2022-09-09T14:55:10;18.30;99.90
13231;DHT22;6681;53.254;10.398;2022-09-09T14:57:36;18.20;99.90
13231;DHT22;6681;53.254;10.398;2022-09-09T15:00:03;18.20;99.90
13231;DHT22;6681;53.254;10.398;2022-09-09T15:02:30;18.30;99.90
13231;DHT22;6681;53.254;10.398;2022-09-09T15:04:56;18.30;99.90
13231;DHT22;6681;53.254;10.398;2022-09-09T15:07:24;18.20;99.90
13231;DHT22;6681;53.254;10.398;2022-09-09T15:09:49;18.20;99.90
13231;DHT22;6681;53.254;10.398;2022-09-09T15:12:15;18.20;99.90
13231;DHT22;6681;53.254;10.398;2022-09-09T15:14:44;18.10;99.90
13231;DHT22;6681;53.254;10.398;2022-09-09T15:17:10;18.10;99.90
13231;DHT22;6681;53.254;10.398;2022-09-09T15:19:35;18.10;99.90
13231;DHT22;6681;53.254;10.398;2022-09-09T15:22:02;18.10;99.90
13231;DHT22;6681;53.254;10.398;2022-09-09T15:24:28;18.10;99.90
13231;DHT22;6681;53.254;10.398;2022-09-09T15:26:54;18.10;99.90
13231;DHT22;6681;53.254;10.398;2022-09-09T15:29:19;18.10;99.90
13231;DHT22;6681;53.254;10.398;2022-09-09T15:31:45;18.10;99.90
13231;DHT22;6681;53.254;10.398;2022-09-09T15:34:12;18.10;99.90
13231;DHT22;6681;53.254;10.398;2022-09-09T15:36:45;18.10;99.90
13231;DHT22;6681;53.254;10.398;2022-09-09T15:39:13;18.10;99.90
13231;DHT22;6681;53.254;10.398;2022-09-09T15:41:42;18.10;99.90
13231;DHT22;6681;53.254;10.398;2022-09-09T15:44:08;18.10;99.90
13231;DHT22;6681;53.254;10.398;2022-09-09T15:46:41;18.40;99.90
13231;DHT22;6681;53.254;10.398;2022-09-09T15:49:18;18.20;99.90
13231;DHT22;6681;53.254;10.398;2022-09-09T15:51:46;18.20;99.90
13231;DHT22;6681;53.254;10.398;2022-09-09T15:54:17;18.20;99.90
13231;DHT22;6681;53.254;10.398;2022-09-09T15:56:44;18.20;99.90
13231;DHT22;6681;53.254;10.398;2022-09-09T15:59:11;18.20;99.90
13231;DHT22;6681;53.254;10.398;2022-09-09T16:01:38;18.20;99.90
13231;DHT22;6681;53.254;10.398;2022-09-09T16:04:05;18.20;99.90
13231;DHT22;6681;53.254;10.398;2022-09-09T16:06:32;18.20;99.90
13231;DHT22;6681;53.254;10.398;2022-09-09T16:08:59;18.20;99.90
13231;DHT22;6681;53.254;10.398;2022-09-09T16:11:33;18.20;99.90
13231;DHT22;6681;53.254;10.398;2022-09-09T16:14:00;18.20;99.90
13231;DHT22;6681;53.254;10.398;2022-09-09T16:16:28;18.20;99.90
13231;DHT22;6681;53.254;10.398;2022-09-09T16:18:59;18.30;99.90
13231;DHT22;6681;53.254;10.398;2022-09-09T16:21:27;18.40;99.90
13231;DHT22;6681;53.254;10.398;2022-09-09T16:23:55;18.30;99.90
13231;DHT22;6681;53.254;10.398;2022-09-09T16:26:21;18.30;99.90
13231;DHT22;6681;53.254;10.398;2022-09-09T16:28:47;18.30;99.90
13231;DHT22;6681;53.254;10.398;2022-09-09T16:31:18;18.30;99.90
13231;DHT22;6681;53.254;10.398;2022-09-09T16:33:44;18.30;99.90
13231;DHT22;6681;53.254;10.398;2022-09-09T16:36:14;18.40;99.90
13231;DHT22;6681;53.254;10.398;2022-09-09T16:38:39;18.40;99.90
13231;DHT22;6681;53.254;10.398;2022-09-09T16:41:06;18.40;99.90
13231;DHT22;6681;53.254;10.398;2022-09-09T16:43:33;18.40;99.90
13231;DHT22;6681;53.254;10.398;2022-09-09T16:45:59;18.40;99.90
13231;DHT22;6681;53.254;10.398;2022-09-09T16:48:31;18.30;99.90
13231;DHT22;6681;53.254;10.398;2022-09-09T16:51:05;18.30;99.90
13231;DHT22;6681;53.254;10.398;2022-09-09T16:53:32;18.30;99.90
13231;DHT22;6681;53.254;10.398;2022-09-09T16:56:04;18.50;99.90
13231;DHT22;6681;53.254;10.398;2022-09-09T16:58:29;18.10;99.90
13231;DHT22;6681;53.254;10.398;2022-09-09T17:01:02;18.20;99.90
13231;DHT22;6681;53.254;10.398;2022-09-09T17:03:28;18.10;99.90
13231;DHT22;6681;53.254;10.398;2022-09-09T17:05:54;18.10;99.90
13231;DHT22;6681;53.254;10.398;2022-09-09T17:08:20;18.10;99.90
13231;DHT22;6681;53.254;10.398;2022-09-09T17:10:46;18.10;99.90
13231;DHT22;6681;53.254;10.398;2022-09-09T17:13:13;18.10;99.90
13231;DHT22;6681;53.254;10.398;2022-09-09T17:15:40;18.00;99.90
13231;DHT22;6681;53.254;10.398;2022-09-09T17:18:08;18.00;99.90
13231;DHT22;6681;53.254;10.398;2022-09-09T17:20:38;18.00;99.90
13231;DHT22;6681;53.254;10.398;2022-09-09T17:23:08;18.00;99.90
13231;DHT22;6681;53.254;10.398;2022-09-09T17:25:34;18.00;99.90
13231;DHT22;6681;53.254;10.398;2022-09-09T17:28:01;17.90;99.90
13231;DHT22;6681;53.254;10.398;2022-09-09T17:30:27;17.90;99.90
13231;DHT22;6681;53.254;10.398;2022-09-09T17:32:53;18.00;99.90
13231;DHT22;6681;53.254;10.398;2022-09-09T17:35:19;18.00;99.90
13231;DHT22;6681;53.254;10.398;2022-09-09T17:37:45;17.90;99.90
13231;DHT22;6681;53.254;10.398;2022-09-09T17:40:11;17.90;99.90
13231;DHT22;6681;53.254;10.398;2022-09-09T17:42:36;17.90;99.90
13231;DHT22;6681;53.254;10.398;2022-09-09T17:45:03;17.90;99.90
13231;DHT22;6681;53.254;10.398;2022-09-09T17:47:28;17.90;99.90
13231;DHT22;6681;53.254;10.398;2022-09-09T17:49:56;17.90;99.90
13231;DHT22;6681;53.254;10.398;2022-09-09T17:52:22;17.80;99.90
13231;DHT22;6681;53.254;10.398;2022-09-09T17:54:48;17.80;99.90
13231;DHT22;6681;53.254;10.398;2022-09-09T17:57:15;17.80;99.90